Nearby METAR Reports

 

KHQM - Hoquiam,WA, USA
Updated: 03/18/2019 10:53pm
Clear
Clear
 Wind from NE
Wind: NE 14 mph , 22 km/h
Temperature: 63°F , 17°C
Dew Point: 30°F , -1°C
Humidity: 30%
Barometer: 30.03 inHg , 1016.9 hPa
Clouds: Clear
Visibility: 10 miles , 16 km
2019/03/19 05:53 KHQM 190553Z AUTO 04012KT 10SM CLR 17/M01 A3003 RMK AO2 SLP171 T01671011 10233 20139 50012